Shenzhen Bao'an International Airport
ZGSZ : now visible

Aeroporto :











RITROVATECI SU...

 
LOGIN :

Iscrizione | Disclaimer

   EN    FR    IT 

 









Sommario :    VFR   VFR Marginale   IFR   IFR Intensivo   IFR Molto Intensivo
Visibilità : 
Base nubi : 
>= 8 km
>= 3000ft
5 / 8 km
1000 / 3000 ft
1500m / 5 km
500 / 1000 ft
800 / 1500m
200 / 500 ft
< 800m
< 200 ft
Simboli :   Temporali  Nebbia  Neve Forte  Precipitazioni Forti  Vento > 20 kt






- Altitudine del aeroporto : 13 ft
- Codice IATA : SZX


ZGSZ - Shenzhen Bao'an International

ULTIMO METAR :
  • 240800Z 18002MPS 5000 BR BKN040 27/24 Q1007 NOSIG

METARs OBSOLETI :
  • 240700Z 22002MPS 6000 BKN040 27/24 Q1007 NOSIG
  • 240600Z 21002MPS 2800 BR OVC033 28/24 Q1008 BECMG AT0630 3500
  • 240500Z 24002MPS 3500 BR FEW016 OVC040 27/24 Q1009 BECMG AT0530 2900

TAF TAF ZGSZ
Valido dal 24 a 06 ore il 25 a 06 ore UTC


240318Z 2406/2506 18004MPS 6000 BKN030 TX28/2406Z TN24/2422Z
TEMPO 2406/2412 SHRA FEW010 FEW025CB BKN030
TEMPO 2420/2424 SHRA FEW010 FEW025CB BKN030
TEMPO 2500/2506 TSRA SCT010 FEW020CB BKN030
FIR ZGZU / Asia



MetMap, La meteo Aeronautica in un colpo d'occhio ! - Copyright ORBIFLY Dicembre 2007 - Disclaimer

ORBIFLY MET'MAP TEAM :

Programmazione e sviluppo : Alexandra Zaïnal
Concezione : Baudouin d'Aumeries
Supporto tecnico e logistico : Manuel Goepfert
Aiuto : Marc-Olivier Méhu
Aiuto per la traduzione : Arnaldo La Scala




FONTI E CREDITI :

   NOAA       Earth
Advisory